Reading, Jamaica
Current Conditions -  °F | °C
As of 3:00 PM on Sunday 23 Nov 2014 (Local Time) from MKJS Reporting Station
Few Clouds Few Clouds  
Wind Chill: 29°   Ceiling: Unl
Heat Index: 36°   Visibility: 6mi
Dew Point: 26°   Wind: 14mph
Humidity: 84%   Direction: 90°E
Pressure: 29.83"   Gusts: NA
Location:  18.45°N, 77.95°W
Report Text: MKJS 232000Z 09012KT 9999 FEW022 FEW024CB 29/26 Q1010
Loading
Personal Weather Stations






























Interactive Weather Map New forecast layout! Learn more

10-Day Weather Forecast

Advertisements
Track Severe Weather on mobile